createdAt,value
2023-07-11T00:02:07.994Z,25.80
2023-07-11T00:04:38.069Z,25.80
2023-07-11T00:07:08.131Z,25.80
2023-07-11T00:09:37.818Z,25.80
2023-07-11T00:12:08.347Z,25.80
2023-07-11T00:14:39.275Z,25.90
2023-07-11T00:17:09.524Z,25.90
2023-07-11T00:20:00.304Z,25.90
2023-07-11T00:22:32.501Z,25.90
2023-07-11T00:25:02.468Z,26.00
2023-07-11T00:27:32.177Z,25.90
2023-07-11T00:30:02.373Z,26.00
2023-07-11T00:32:32.224Z,26.00
2023-07-11T00:35:02.792Z,26.00
2023-07-11T00:37:32.841Z,26.00
2023-07-11T00:40:02.562Z,26.00
2023-07-11T00:42:34.196Z,26.10
2023-07-11T00:45:06.460Z,26.20
2023-07-11T00:47:36.981Z,26.20
2023-07-11T00:50:10.891Z,26.30
2023-07-11T00:52:41.483Z,26.30
2023-07-11T00:55:15.185Z,26.30
2023-07-11T00:57:46.896Z,26.30
2023-07-11T01:00:17.254Z,26.30
2023-07-11T01:02:47.180Z,26.30
2023-07-11T01:05:17.313Z,26.40
2023-07-11T01:07:47.717Z,26.40
2023-07-11T01:10:17.661Z,26.40
2023-07-11T01:12:49.978Z,26.50
2023-07-11T01:15:22.863Z,26.60
2023-07-11T01:17:52.869Z,26.70
2023-07-11T01:20:25.585Z,26.80
2023-07-11T01:22:58.587Z,26.90
2023-07-11T01:25:28.520Z,26.90
2023-07-11T01:27:58.319Z,26.90
2023-07-11T01:30:29.683Z,27.00
2023-07-11T01:33:01.232Z,27.10
2023-07-11T01:35:31.358Z,27.10
2023-07-11T01:38:02.182Z,27.20
2023-07-11T01:40:32.335Z,27.20
2023-07-11T01:43:02.721Z,27.30
2023-07-11T01:45:32.746Z,27.30
2023-07-11T01:48:02.980Z,27.30
2023-07-11T01:50:32.907Z,27.40
2023-07-11T01:53:02.723Z,27.50
2023-07-11T01:55:35.321Z,27.50
2023-07-11T01:58:05.413Z,27.60
2023-07-11T02:00:35.234Z,27.70
2023-07-11T02:03:07.226Z,27.80
2023-07-11T02:05:38.517Z,27.90
2023-07-11T02:08:09.695Z,28.00
2023-07-11T02:10:41.600Z,28.30
2023-07-11T02:13:15.116Z,28.40
2023-07-11T02:15:45.689Z,28.50
2023-07-11T02:18:16.172Z,28.50
2023-07-11T02:20:47.940Z,28.50
2023-07-11T02:23:19.357Z,28.60
2023-07-11T02:25:49.380Z,28.80
2023-07-11T02:28:20.058Z,28.80
2023-07-11T02:30:50.315Z,28.80
2023-07-11T02:33:20.121Z,28.80
2023-07-11T02:35:50.126Z,28.80
2023-07-11T02:38:20.279Z,28.80
2023-07-11T02:40:50.512Z,28.80
2023-07-11T02:43:22.162Z,28.90
2023-07-11T02:45:52.372Z,28.90
2023-07-11T02:48:22.902Z,29.00
2023-07-11T02:50:53.104Z,29.00
2023-07-11T02:53:23.753Z,29.00
2023-07-11T02:55:55.215Z,29.00
2023-07-11T02:58:25.807Z,29.10
2023-07-11T03:00:58.533Z,29.40
2023-07-11T03:03:29.305Z,29.50
2023-07-11T03:05:59.880Z,29.80
2023-07-11T03:08:30.151Z,30.00
2023-07-11T03:11:01.548Z,30.10
2023-07-11T03:13:32.535Z,30.10
2023-07-11T03:16:07.082Z,30.20
2023-07-11T03:18:37.617Z,30.50
2023-07-11T03:21:07.407Z,30.80
2023-07-11T03:23:37.710Z,31.00
2023-07-11T03:26:07.911Z,30.70
2023-07-11T03:28:38.166Z,30.80
2023-07-11T03:31:08.154Z,30.70
2023-07-11T03:33:38.331Z,30.80
2023-07-11T03:36:08.794Z,30.90
2023-07-11T03:38:39.265Z,30.90
2023-07-11T03:41:09.212Z,30.80
2023-07-11T03:43:39.576Z,30.70
2023-07-11T03:46:10.124Z,30.70
2023-07-11T03:48:40.859Z,30.70
2023-07-11T03:51:10.881Z,30.70
2023-07-11T03:53:41.015Z,30.60
2023-07-11T03:56:11.528Z,30.70
2023-07-11T03:58:41.713Z,30.80
2023-07-11T04:01:14.008Z,30.90
2023-07-11T04:03:47.234Z,30.80
2023-07-11T04:06:19.158Z,30.70
2023-07-11T04:08:50.370Z,30.70
2023-07-11T04:11:22.215Z,30.70
2023-07-11T04:13:54.494Z,30.70
2023-07-11T04:16:26.592Z,30.60
2023-07-11T04:18:57.015Z,30.50
2023-07-11T04:21:27.235Z,30.50
2023-07-11T04:23:59.209Z,30.50
2023-07-11T04:26:29.233Z,30.60
2023-07-11T04:29:01.232Z,30.60
2023-07-11T04:31:31.817Z,30.80
2023-07-11T04:34:02.256Z,30.90
2023-07-11T04:36:33.929Z,30.90
2023-07-11T04:39:05.135Z,31.00
2023-07-11T04:41:36.930Z,31.10
2023-07-11T04:44:07.725Z,31.00
2023-07-11T04:46:39.055Z,31.00
2023-07-11T04:49:10.092Z,31.10
2023-07-11T04:51:40.553Z,31.00
2023-07-11T04:54:11.678Z,31.00
2023-07-11T04:56:45.283Z,30.90
2023-07-11T04:59:15.730Z,31.00
2023-07-11T05:01:46.238Z,31.00
2023-07-11T05:04:18.032Z,31.00
2023-07-11T05:06:50.845Z,31.30
2023-07-11T05:09:23.175Z,31.50
2023-07-11T05:11:55.952Z,31.60
2023-07-11T05:14:27.402Z,31.40
2023-07-11T05:16:59.036Z,31.70
2023-07-11T05:19:29.633Z,31.70
2023-07-11T05:21:59.854Z,31.50
2023-07-11T05:24:32.525Z,31.50
2023-07-11T05:27:02.964Z,31.50
2023-07-11T05:29:33.798Z,31.40
2023-07-11T05:32:07.522Z,31.70
2023-07-11T05:34:38.012Z,31.80
2023-07-11T05:37:08.252Z,31.70
2023-07-11T05:39:38.360Z,31.70
2023-07-11T05:42:08.940Z,31.90
2023-07-11T05:44:40.456Z,32.30
2023-07-11T05:47:12.235Z,32.40
2023-07-11T05:49:43.458Z,32.50
2023-07-11T05:52:13.882Z,32.60
2023-07-11T05:54:44.076Z,32.60
2023-07-11T05:57:15.297Z,32.50
2023-07-11T05:59:45.856Z,32.30
2023-07-11T06:02:16.132Z,32.20
2023-07-11T06:04:46.758Z,32.10
2023-07-11T06:07:17.163Z,32.10
2023-07-11T06:09:46.980Z,32.10
2023-07-11T06:12:17.447Z,32.10
2023-07-11T06:14:47.743Z,32.40
2023-07-11T06:17:18.599Z,32.50
2023-07-11T06:19:48.912Z,32.20
2023-07-11T06:22:22.485Z,32.10
2023-07-11T06:24:52.949Z,32.10
2023-07-11T06:27:23.103Z,32.00
2023-07-11T06:29:56.523Z,31.90
2023-07-11T06:32:26.910Z,32.00
2023-07-11T06:34:57.291Z,32.00
2023-07-11T06:37:27.924Z,32.20
2023-07-11T06:39:59.541Z,32.10
2023-07-11T06:42:30.257Z,32.30
2023-07-11T06:45:01.889Z,32.80
2023-07-11T06:47:33.640Z,33.10
2023-07-11T06:50:06.080Z,32.90
2023-07-11T06:52:36.591Z,33.20
2023-07-11T06:55:06.910Z,33.20
2023-07-11T06:57:37.920Z,33.20
2023-07-11T07:00:10.996Z,33.50
2023-07-11T07:02:43.345Z,33.40
2023-07-11T07:05:13.769Z,33.50
2023-07-11T07:07:47.422Z,33.60
2023-07-11T07:10:17.965Z,33.70
2023-07-11T07:12:47.675Z,33.50
2023-07-11T07:15:17.761Z,33.70
2023-07-11T07:17:47.587Z,33.70
2023-07-11T07:20:18.010Z,33.70
2023-07-11T07:22:48.064Z,33.40
2023-07-11T07:27:53.607Z,33.10
2023-07-11T07:30:23.348Z,33.00
2023-07-11T07:32:53.914Z,32.90
2023-07-11T07:35:25.790Z,32.90
2023-07-11T07:37:58.109Z,32.80
2023-07-11T07:40:28.406Z,32.70
2023-07-11T07:42:58.191Z,32.70
2023-07-11T07:45:28.548Z,32.70
2023-07-11T07:47:58.689Z,32.80
2023-07-11T07:50:29.585Z,32.90
2023-07-11T07:52:59.295Z,32.50
2023-07-11T07:55:29.705Z,32.50
2023-07-11T07:58:00.459Z,32.40
2023-07-11T08:00:30.608Z,32.40
2023-07-11T08:03:00.919Z,32.40
2023-07-11T08:05:31.148Z,32.50
2023-07-11T08:08:02.604Z,32.60
2023-07-11T08:10:32.939Z,32.90
2023-07-11T08:13:02.840Z,33.10
2023-07-11T08:15:32.841Z,33.30
2023-07-11T08:18:03.014Z,33.40
2023-07-11T08:20:33.031Z,33.60
2023-07-11T08:23:02.764Z,33.60
2023-07-11T08:25:33.054Z,33.70
2023-07-11T08:28:02.924Z,33.70
2023-07-11T08:30:33.300Z,34.00
2023-07-11T08:33:03.208Z,34.10
2023-07-11T08:35:33.253Z,34.20
2023-07-11T08:38:05.006Z,34.00
2023-07-11T08:40:48.270Z,34.00
2023-07-11T08:43:32.012Z,33.90
2023-07-11T08:46:14.075Z,33.80
2023-07-11T08:48:56.397Z,33.90
2023-07-11T08:51:41.641Z,34.20
2023-07-11T08:54:39.294Z,34.30
2023-07-11T08:57:16.220Z,34.10
2023-07-11T09:00:26.488Z,33.90
2023-07-11T09:03:25.425Z,33.80
2023-07-11T09:06:24.136Z,34.00
2023-07-11T09:08:57.040Z,34.10
2023-07-11T09:11:49.280Z,33.90
2023-07-11T09:14:48.923Z,34.10
2023-07-11T09:17:46.366Z,34.10
2023-07-11T09:20:44.243Z,34.10
2023-07-11T09:23:53.696Z,33.90
2023-07-11T09:26:30.622Z,33.70
2023-07-11T09:29:08.752Z,33.80
2023-07-11T09:31:47.904Z,33.80
2023-07-11T09:34:29.941Z,33.90
2023-07-11T09:37:01.862Z,34.00
2023-07-11T09:39:46.452Z,33.90
2023-07-11T09:42:56.396Z,33.90
2023-07-11T09:45:33.985Z,33.90
2023-07-11T09:48:36.974Z,33.80
2023-07-11T09:51:27.848Z,33.80
2023-07-11T09:53:59.164Z,33.70
2023-07-11T09:56:29.892Z,33.60
2023-07-11T09:59:03.127Z,33.60
2023-07-11T10:01:40.468Z,33.50
2023-07-11T10:04:20.399Z,33.50
2023-07-11T10:07:03.511Z,33.60
2023-07-11T10:09:46.238Z,33.70
2023-07-11T10:12:29.181Z,33.60
2023-07-11T10:15:07.468Z,33.40
2023-07-11T10:17:40.086Z,33.40
2023-07-11T10:20:20.030Z,33.30
2023-07-11T10:22:55.324Z,33.40
2023-07-11T10:25:32.193Z,33.30
2023-07-11T10:28:08.027Z,33.30
2023-07-11T10:30:41.703Z,33.20
2023-07-11T10:33:40.329Z,33.30
2023-07-11T10:36:31.650Z,33.20
2023-07-11T10:39:06.738Z,33.30
2023-07-11T10:41:53.194Z,33.40
2023-07-11T10:44:28.767Z,33.30
2023-07-11T10:47:00.242Z,33.20
2023-07-11T10:49:52.172Z,33.20
2023-07-11T10:52:26.677Z,33.20
2023-07-11T10:55:17.037Z,33.10
2023-07-11T10:57:55.168Z,33.10
2023-07-11T11:00:49.465Z,33.10
2023-07-11T11:03:47.203Z,33.00
2023-07-11T11:06:42.733Z,33.00
2023-07-11T11:09:39.269Z,33.00
2023-07-11T11:12:36.985Z,32.90
2023-07-11T11:15:34.641Z,32.90
2023-07-11T11:18:44.221Z,32.70
2023-07-11T11:25:02.253Z,32.60
2023-07-11T11:27:59.430Z,32.50
2023-07-11T11:30:57.173Z,32.50
2023-07-11T11:34:06.505Z,32.50
2023-07-11T11:37:16.054Z,32.40
2023-07-11T11:40:20.605Z,32.40
2023-07-11T11:43:02.084Z,32.30
2023-07-11T11:46:26.865Z,32.30
2023-07-11T11:54:02.475Z,32.10
2023-07-11T11:56:33.764Z,32.10
2023-07-11T11:59:08.218Z,32.00
2023-07-11T12:02:19.739Z,32.00
2023-07-11T12:05:24.808Z,31.90
2023-07-11T12:08:34.849Z,31.90
2023-07-11T12:11:34.562Z,31.80
2023-07-11T12:14:35.314Z,31.80
2023-07-11T12:17:05.944Z,31.70
2023-07-11T12:19:44.727Z,31.50
2023-07-11T12:22:17.048Z,31.50
2023-07-11T12:24:49.782Z,31.40
2023-07-11T12:28:01.317Z,31.40
2023-07-11T12:30:44.970Z,31.60
2023-07-11T12:33:39.534Z,31.60
2023-07-11T12:36:37.835Z,31.50
2023-07-11T12:39:34.841Z,31.60
2023-07-11T12:42:45.087Z,31.50
2023-07-11T12:45:21.136Z,31.50
2023-07-11T12:48:03.938Z,31.50
2023-07-11T12:51:03.481Z,31.40
2023-07-11T12:53:37.405Z,31.30
2023-07-11T12:56:16.046Z,30.70
2023-07-11T12:58:47.965Z,30.50
2023-07-11T13:01:19.070Z,30.20
2023-07-11T13:03:49.949Z,30.10
2023-07-11T13:06:35.843Z,29.90
2023-07-11T13:09:06.502Z,29.70
2023-07-11T13:11:39.318Z,29.70
2023-07-11T13:14:14.406Z,29.60
2023-07-11T13:16:48.406Z,29.60
2023-07-11T13:19:24.095Z,29.40
2023-07-11T13:21:56.359Z,29.30
2023-07-11T13:24:31.329Z,29.20
2023-07-11T13:27:07.539Z,29.30
2023-07-11T13:29:46.962Z,29.30
2023-07-11T13:32:22.140Z,29.30
2023-07-11T13:34:57.845Z,29.30
2023-07-11T13:37:44.531Z,29.20
2023-07-11T13:40:40.055Z,29.20
2023-07-11T13:43:22.572Z,29.30
2023-07-11T13:45:55.415Z,29.30
2023-07-11T13:48:33.698Z,29.20
2023-07-11T13:51:43.493Z,28.90
2023-07-11T13:54:26.822Z,28.80
2023-07-11T13:56:59.265Z,28.80
2023-07-11T14:02:04.578Z,28.80
2023-07-11T14:04:38.656Z,28.70
2023-07-11T14:07:11.733Z,28.80
2023-07-11T14:09:42.270Z,28.80
2023-07-11T14:12:16.888Z,28.80
2023-07-11T14:14:48.968Z,28.70
2023-07-11T14:17:21.995Z,28.60
2023-07-11T14:19:54.003Z,28.50
2023-07-11T14:22:27.383Z,28.50
2023-07-11T14:24:57.553Z,28.60
2023-07-11T14:27:27.790Z,28.70
2023-07-11T14:29:59.619Z,28.80
2023-07-11T14:32:30.793Z,29.00
2023-07-11T14:35:01.168Z,29.10
2023-07-11T14:37:32.681Z,29.10
2023-07-11T14:40:03.340Z,29.20
2023-07-11T14:42:33.732Z,29.00
2023-07-11T14:45:04.270Z,29.00
2023-07-11T14:47:34.583Z,29.00
2023-07-11T14:50:07.208Z,28.80
2023-07-11T14:52:37.862Z,29.00
2023-07-11T14:57:57.687Z,28.70
2023-07-11T15:00:31.611Z,28.70
2023-07-11T15:03:03.224Z,28.60
2023-07-11T15:11:33.198Z,28.40
2023-07-11T15:16:38.685Z,28.30
2023-07-11T15:19:29.836Z,28.30
2023-07-11T15:22:07.566Z,28.30
2023-07-11T15:24:42.661Z,28.30
2023-07-11T15:27:18.016Z,28.40
2023-07-11T15:29:48.666Z,28.40
2023-07-11T15:32:22.344Z,28.40
2023-07-11T15:34:53.186Z,28.40
2023-07-11T15:37:23.283Z,28.40
2023-07-11T15:39:53.438Z,28.40
2023-07-11T15:42:28.900Z,28.40
2023-07-11T15:45:02.297Z,28.40
2023-07-11T15:47:32.561Z,28.40
2023-07-11T15:50:02.709Z,28.30
2023-07-11T15:52:33.081Z,28.40
2023-07-11T15:55:03.197Z,28.30
2023-07-11T15:57:41.648Z,28.40
2023-07-11T16:00:24.447Z,28.30
2023-07-11T16:02:55.958Z,28.20
2023-07-11T16:05:30.675Z,28.20
2023-07-11T16:08:02.409Z,28.10
2023-07-11T16:10:36.141Z,28.10
2023-07-11T16:13:06.944Z,28.10
2023-07-11T16:15:38.675Z,28.10
2023-07-11T16:18:16.754Z,28.20
2023-07-11T16:20:49.371Z,28.10
2023-07-11T16:23:23.201Z,28.00
2023-07-11T16:25:54.289Z,27.80
2023-07-11T16:28:35.809Z,27.90
2023-07-11T16:31:08.224Z,27.70
2023-07-11T16:33:40.811Z,27.70
2023-07-11T16:36:18.317Z,27.70
2023-07-11T16:38:50.461Z,27.70
2023-07-11T16:41:21.503Z,27.70
2023-07-11T16:43:52.970Z,27.60
2023-07-11T16:46:24.804Z,27.60
2023-07-11T16:48:55.782Z,27.60
2023-07-11T16:51:28.387Z,27.50
2023-07-11T16:53:58.963Z,27.40
2023-07-11T16:56:29.041Z,27.50
2023-07-11T16:58:59.642Z,27.40
2023-07-11T17:01:29.879Z,27.50
2023-07-11T17:04:02.912Z,27.50
2023-07-11T17:06:35.445Z,27.60
2023-07-11T17:09:22.913Z,27.50
2023-07-11T17:11:56.548Z,27.50
2023-07-11T17:14:27.541Z,27.50
2023-07-11T17:17:00.586Z,27.50
2023-07-11T17:19:37.302Z,27.50
2023-07-11T17:22:09.532Z,27.50
2023-07-11T17:24:40.035Z,27.40
2023-07-11T17:27:18.349Z,27.40
2023-07-11T17:29:49.186Z,27.40
2023-07-11T17:32:23.401Z,27.30
2023-07-11T17:34:55.874Z,27.40
2023-07-11T17:37:40.129Z,27.20
2023-07-11T17:40:21.366Z,27.30
2023-07-11T17:42:51.768Z,27.40
2023-07-11T17:45:49.740Z,27.40
2023-07-11T17:48:22.193Z,27.30
2023-07-11T17:50:56.880Z,27.10
2023-07-11T17:53:27.647Z,26.90
2023-07-11T17:55:58.218Z,26.80
2023-07-11T17:58:30.861Z,26.80
2023-07-11T18:01:02.547Z,26.90
2023-07-11T18:03:33.170Z,26.90
2023-07-11T18:06:06.580Z,26.90
2023-07-11T18:08:37.612Z,26.90
2023-07-11T18:11:08.127Z,27.00
2023-07-11T18:13:39.688Z,27.00
2023-07-11T18:16:30.638Z,26.90
2023-07-11T18:19:01.449Z,26.80
2023-07-11T18:21:33.748Z,26.90
2023-07-11T18:24:04.288Z,26.80
2023-07-11T18:26:34.465Z,26.80
2023-07-11T18:29:04.786Z,26.80
2023-07-11T18:31:34.952Z,26.90
2023-07-11T18:34:05.123Z,26.80
2023-07-11T18:36:35.718Z,26.80
2023-07-11T18:39:07.227Z,26.80
2023-07-11T18:41:39.699Z,26.80
2023-07-11T18:44:10.139Z,26.70
2023-07-11T18:46:42.273Z,26.70
2023-07-11T18:49:12.930Z,26.80
2023-07-11T18:51:43.849Z,26.70
2023-07-11T18:54:15.913Z,26.80
2023-07-11T18:56:47.690Z,26.70
2023-07-11T18:59:19.725Z,26.90
2023-07-11T19:01:50.326Z,26.80
2023-07-11T19:04:20.538Z,26.90
2023-07-11T19:06:53.035Z,26.90
2023-07-11T19:09:23.331Z,26.90
2023-07-11T19:11:53.499Z,27.00
2023-07-11T19:14:24.870Z,27.10
2023-07-11T19:16:57.305Z,27.00
2023-07-11T19:19:32.258Z,26.90
2023-07-11T19:22:03.449Z,27.00
2023-07-11T19:24:34.878Z,26.80
2023-07-11T19:27:05.281Z,26.80
2023-07-11T19:29:35.403Z,26.80
2023-07-11T19:32:16.075Z,26.90
2023-07-11T19:34:46.878Z,26.70
2023-07-11T19:37:23.895Z,26.70
2023-07-11T19:39:54.151Z,26.50
2023-07-11T19:42:26.290Z,26.60
2023-07-11T19:44:57.028Z,26.50
2023-07-11T19:47:27.205Z,26.50
2023-07-11T19:49:57.413Z,26.50
2023-07-11T19:52:27.528Z,26.70
2023-07-11T19:54:59.327Z,26.80
2023-07-11T19:57:29.612Z,26.80
2023-07-11T19:59:59.702Z,26.90
2023-07-11T20:02:30.049Z,27.00
2023-07-11T20:05:00.343Z,26.90
2023-07-11T20:07:32.830Z,27.00
2023-07-11T20:10:04.742Z,27.00
2023-07-11T20:12:37.309Z,27.00
2023-07-11T20:15:08.008Z,26.80
2023-07-11T20:17:39.966Z,26.80
2023-07-11T20:20:35.388Z,26.70
2023-07-11T20:23:06.650Z,26.80
2023-07-11T20:25:38.470Z,26.70
2023-07-11T20:28:20.146Z,26.60
2023-07-11T20:30:55.667Z,26.50
2023-07-11T20:33:26.418Z,26.50
2023-07-11T20:35:59.300Z,26.50
2023-07-11T20:38:30.550Z,26.60
2023-07-11T20:41:00.713Z,26.60
2023-07-11T20:43:31.418Z,26.60
2023-07-11T20:46:01.637Z,26.50
2023-07-11T20:48:35.301Z,26.50
2023-07-11T20:51:06.994Z,26.50
2023-07-11T20:53:37.616Z,26.60
2023-07-11T20:56:16.845Z,26.60
2023-07-11T20:58:49.631Z,26.60
2023-07-11T21:01:22.893Z,26.40
2023-07-11T21:03:55.461Z,26.50
2023-07-11T21:06:38.841Z,26.50
2023-07-11T21:09:15.243Z,26.30
2023-07-11T21:11:50.864Z,26.10
2023-07-11T21:14:22.600Z,26.20
2023-07-11T21:16:53.991Z,26.20
2023-07-11T21:19:26.568Z,26.20
2023-07-11T21:21:57.405Z,26.30
2023-07-11T21:24:28.066Z,26.40
2023-07-11T21:26:58.827Z,26.40
2023-07-11T21:29:30.501Z,26.40
2023-07-11T21:32:01.560Z,26.30
2023-07-11T21:34:32.221Z,26.30
2023-07-11T21:37:02.294Z,26.40
2023-07-11T21:39:32.843Z,26.40
2023-07-11T21:42:03.041Z,26.50
2023-07-11T21:44:35.134Z,26.50
2023-07-11T21:47:06.267Z,26.50
2023-07-11T21:49:39.170Z,26.60
2023-07-11T21:52:10.211Z,26.50
2023-07-11T21:54:40.646Z,26.50
2023-07-11T21:57:16.690Z,26.50
2023-07-11T21:59:46.747Z,26.50
2023-07-11T22:02:18.472Z,26.40
2023-07-11T22:04:50.505Z,26.30
2023-07-11T22:07:20.411Z,26.40
2023-07-11T22:09:50.980Z,26.40
2023-07-11T22:12:21.410Z,26.40
2023-07-11T22:14:53.047Z,26.20
2023-07-11T22:17:25.609Z,26.30
2023-07-11T22:19:58.852Z,26.30
2023-07-11T22:22:30.252Z,26.30
2023-07-11T22:25:00.708Z,26.30
2023-07-11T22:27:32.828Z,26.30
2023-07-11T22:30:03.217Z,26.20
2023-07-11T22:32:34.799Z,26.20
2023-07-11T22:35:06.121Z,26.20
2023-07-11T22:37:39.646Z,26.20
2023-07-11T22:40:42.449Z,26.10
2023-07-11T22:43:17.194Z,26.20
2023-07-11T22:45:51.363Z,26.20
2023-07-11T22:48:24.463Z,26.20
2023-07-11T22:50:59.711Z,26.20
2023-07-11T22:53:34.981Z,26.20
2023-07-11T22:56:09.293Z,26.30
2023-07-11T22:58:39.941Z,26.30
2023-07-11T23:01:18.118Z,26.30
2023-07-11T23:03:49.053Z,26.10
2023-07-11T23:06:30.148Z,26.10
2023-07-11T23:09:01.257Z,26.20
2023-07-11T23:11:33.236Z,26.20
2023-07-11T23:14:04.467Z,26.30
2023-07-11T23:16:36.486Z,26.20
2023-07-11T23:19:10.353Z,26.20
2023-07-11T23:21:42.399Z,26.20
2023-07-11T23:24:12.743Z,26.20
2023-07-11T23:26:44.635Z,26.20
2023-07-11T23:29:19.938Z,26.20
2023-07-11T23:31:50.442Z,26.20
2023-07-11T23:34:20.540Z,26.20
2023-07-11T23:36:52.542Z,26.30
2023-07-11T23:39:24.439Z,26.30
2023-07-11T23:41:54.728Z,26.30
2023-07-11T23:44:25.151Z,26.40
2023-07-11T23:46:56.205Z,26.40
2023-07-11T23:49:28.167Z,26.50
2023-07-11T23:52:00.376Z,26.60
2023-07-11T23:54:32.511Z,26.70
2023-07-11T23:57:03.644Z,26.60
2023-07-11T23:59:35.282Z,26.60
